sensor_id;sensor_type;location;lat;lon;timestamp;P1;durP1;ratioP1;P2;durP2;ratioP2
47483;SDS011;54076;50.322;18.650;2023-09-19T00:02:57;15.40;;;9.00;;
47483;SDS011;54076;50.322;18.650;2023-09-19T00:08:02;15.00;;;8.60;;
47483;SDS011;54076;50.322;18.650;2023-09-19T00:13:04;14.50;;;7.70;;
47483;SDS011;54076;50.322;18.650;2023-09-19T00:18:08;14.90;;;8.60;;
47483;SDS011;54076;50.322;18.650;2023-09-19T00:23:09;14.50;;;8.40;;
47483;SDS011;54076;50.322;18.650;2023-09-19T00:28:10;13.80;;;8.80;;
47483;SDS011;54076;50.322;18.650;2023-09-19T00:33:12;17.10;;;8.80;;
47483;SDS011;54076;50.322;18.650;2023-09-19T00:38:16;16.30;;;8.60;;
47483;SDS011;54076;50.322;18.650;2023-09-19T00:43:20;17.60;;;9.00;;
47483;SDS011;54076;50.322;18.650;2023-09-19T00:48:22;13.80;;;8.80;;
47483;SDS011;54076;50.322;18.650;2023-09-19T00:53:28;14.60;;;8.50;;
47483;SDS011;54076;50.322;18.650;2023-09-19T00:58:31;19.30;;;8.70;;
47483;SDS011;54076;50.322;18.650;2023-09-19T01:03:34;13.90;;;8.40;;
47483;SDS011;54076;50.322;18.650;2023-09-19T01:08:35;14.70;;;8.50;;
47483;SDS011;54076;50.322;18.650;2023-09-19T01:13:55;14.10;;;8.60;;
47483;SDS011;54076;50.322;18.650;2023-09-19T01:19:14;14.00;;;8.20;;
47483;SDS011;54076;50.322;18.650;2023-09-19T01:25:07;17.00;;;9.40;;
47483;SDS011;54076;50.322;18.650;2023-09-19T01:30:43;15.30;;;8.50;;
47483;SDS011;54076;50.322;18.650;2023-09-19T01:35:44;14.00;;;8.10;;
47483;SDS011;54076;50.322;18.650;2023-09-19T01:41:00;14.90;;;9.30;;
47483;SDS011;54076;50.322;18.650;2023-09-19T01:46:25;14.40;;;8.70;;
47483;SDS011;54076;50.322;18.650;2023-09-19T01:57:27;15.00;;;9.20;;
47483;SDS011;54076;50.322;18.650;2023-09-19T02:02:31;16.10;;;8.20;;
47483;SDS011;54076;50.322;18.650;2023-09-19T02:07:35;17.00;;;9.00;;
47483;SDS011;54076;50.322;18.650;2023-09-19T02:12:36;18.30;;;9.10;;
47483;SDS011;54076;50.322;18.650;2023-09-19T02:17:37;16.00;;;8.90;;
47483;SDS011;54076;50.322;18.650;2023-09-19T02:22:38;14.50;;;9.30;;
47483;SDS011;54076;50.322;18.650;2023-09-19T02:27:39;15.70;;;9.40;;
47483;SDS011;54076;50.322;18.650;2023-09-19T02:32:40;17.70;;;10.00;;
47483;SDS011;54076;50.322;18.650;2023-09-19T02:37:41;22.70;;;10.20;;
47483;SDS011;54076;50.322;18.650;2023-09-19T02:42:42;17.70;;;10.00;;
47483;SDS011;54076;50.322;18.650;2023-09-19T02:47:47;19.10;;;9.90;;
47483;SDS011;54076;50.322;18.650;2023-09-19T02:52:48;17.20;;;9.30;;
47483;SDS011;54076;50.322;18.650;2023-09-19T02:57:50;17.90;;;9.10;;
47483;SDS011;54076;50.322;18.650;2023-09-19T03:02:55;17.40;;;9.80;;
47483;SDS011;54076;50.322;18.650;2023-09-19T03:07:57;19.90;;;10.00;;
47483;SDS011;54076;50.322;18.650;2023-09-19T03:13:01;16.50;;;9.70;;
47483;SDS011;54076;50.322;18.650;2023-09-19T03:18:02;19.50;;;9.70;;
47483;SDS011;54076;50.322;18.650;2023-09-19T03:23:03;18.50;;;10.30;;
47483;SDS011;54076;50.322;18.650;2023-09-19T03:28:06;19.00;;;9.90;;
47483;SDS011;54076;50.322;18.650;2023-09-19T03:33:08;19.30;;;9.80;;
47483;SDS011;54076;50.322;18.650;2023-09-19T03:38:09;17.60;;;9.80;;
47483;SDS011;54076;50.322;18.650;2023-09-19T03:43:09;20.50;;;10.10;;
47483;SDS011;54076;50.322;18.650;2023-09-19T03:48:10;21.10;;;9.80;;
47483;SDS011;54076;50.322;18.650;2023-09-19T03:53:11;20.80;;;9.90;;
47483;SDS011;54076;50.322;18.650;2023-09-19T03:58:12;16.90;;;9.40;;
47483;SDS011;54076;50.322;18.650;2023-09-19T04:03:14;17.90;;;10.20;;
47483;SDS011;54076;50.322;18.650;2023-09-19T04:08:20;24.70;;;10.30;;
47483;SDS011;54076;50.322;18.650;2023-09-19T04:13:20;19.20;;;11.00;;
47483;SDS011;54076;50.322;18.650;2023-09-19T04:18:22;16.50;;;9.50;;
47483;SDS011;54076;50.322;18.650;2023-09-19T04:23:24;17.50;;;9.40;;
47483;SDS011;54076;50.322;18.650;2023-09-19T04:28:25;19.20;;;10.10;;
47483;SDS011;54076;50.322;18.650;2023-09-19T04:33:28;21.90;;;10.00;;
47483;SDS011;54076;50.322;18.650;2023-09-19T04:38:29;20.90;;;10.50;;
47483;SDS011;54076;50.322;18.650;2023-09-19T04:43:29;19.70;;;10.00;;
47483;SDS011;54076;50.322;18.650;2023-09-19T04:48:31;16.40;;;9.60;;
47483;SDS011;54076;50.322;18.650;2023-09-19T04:53:32;17.50;;;10.20;;
47483;SDS011;54076;50.322;18.650;2023-09-19T04:58:33;21.00;;;10.90;;
47483;SDS011;54076;50.322;18.650;2023-09-19T05:03:34;23.70;;;10.50;;
47483;SDS011;54076;50.322;18.650;2023-09-19T05:10:00;21.90;;;10.30;;
47483;SDS011;54076;50.322;18.650;2023-09-19T05:15:05;20.30;;;9.80;;
47483;SDS011;54076;50.322;18.650;2023-09-19T05:20:08;17.60;;;9.50;;
47483;SDS011;54076;50.322;18.650;2023-09-19T05:25:25;22.00;;;9.70;;
47483;SDS011;54076;50.322;18.650;2023-09-19T05:30:26;15.60;;;7.30;;
47483;SDS011;54076;50.322;18.650;2023-09-19T05:35:30;13.30;;;6.30;;
47483;SDS011;54076;50.322;18.650;2023-09-19T05:40:31;12.00;;;5.60;;
47483;SDS011;54076;50.322;18.650;2023-09-19T05:45:32;11.00;;;5.00;;
47483;SDS011;54076;50.322;18.650;2023-09-19T05:50:33;8.40;;;3.90;;
47483;SDS011;54076;50.322;18.650;2023-09-19T05:55:34;12.20;;;3.50;;
47483;SDS011;54076;50.322;18.650;2023-09-19T06:00:36;10.30;;;3.60;;
47483;SDS011;54076;50.322;18.650;2023-09-19T06:05:37;9.80;;;3.60;;
47483;SDS011;54076;50.322;18.650;2023-09-19T06:10:40;11.40;;;3.20;;
47483;SDS011;54076;50.322;18.650;2023-09-19T06:15:41;9.50;;;2.80;;
47483;SDS011;54076;50.322;18.650;2023-09-19T06:20:42;11.80;;;3.00;;
47483;SDS011;54076;50.322;18.650;2023-09-19T06:25:45;8.30;;;3.30;;
47483;SDS011;54076;50.322;18.650;2023-09-19T06:30:46;9.00;;;3.90;;
47483;SDS011;54076;50.322;18.650;2023-09-19T06:35:47;9.60;;;3.80;;
47483;SDS011;54076;50.322;18.650;2023-09-19T06:40:48;11.90;;;3.80;;
47483;SDS011;54076;50.322;18.650;2023-09-19T06:45:49;8.60;;;3.90;;
47483;SDS011;54076;50.322;18.650;2023-09-19T06:50:55;8.90;;;3.30;;
47483;SDS011;54076;50.322;18.650;2023-09-19T06:55:59;9.60;;;3.80;;
47483;SDS011;54076;50.322;18.650;2023-09-19T07:00:59;6.70;;;2.70;;
47483;SDS011;54076;50.322;18.650;2023-09-19T07:06:00;6.70;;;2.50;;
47483;SDS011;54076;50.322;18.650;2023-09-19T07:11:01;7.00;;;2.40;;
47483;SDS011;54076;50.322;18.650;2023-09-19T07:16:02;7.90;;;2.40;;
47483;SDS011;54076;50.322;18.650;2023-09-19T07:21:03;7.40;;;2.70;;
47483;SDS011;54076;50.322;18.650;2023-09-19T07:26:06;5.10;;;2.20;;
47483;SDS011;54076;50.322;18.650;2023-09-19T07:31:07;7.20;;;2.40;;
47483;SDS011;54076;50.322;18.650;2023-09-19T07:36:11;5.50;;;2.30;;
47483;SDS011;54076;50.322;18.650;2023-09-19T07:41:14;5.40;;;1.80;;
47483;SDS011;54076;50.322;18.650;2023-09-19T07:46:14;6.30;;;2.50;;
47483;SDS011;54076;50.322;18.650;2023-09-19T07:51:15;5.40;;;2.30;;
47483;SDS011;54076;50.322;18.650;2023-09-19T07:56:16;7.50;;;2.20;;
47483;SDS011;54076;50.322;18.650;2023-09-19T08:01:20;7.10;;;2.40;;
47483;SDS011;54076;50.322;18.650;2023-09-19T08:06:24;5.80;;;3.10;;
47483;SDS011;54076;50.322;18.650;2023-09-19T08:11:27;5.50;;;2.30;;
47483;SDS011;54076;50.322;18.650;2023-09-19T08:16:31;21.00;;;6.90;;
47483;SDS011;54076;50.322;18.650;2023-09-19T08:21:32;14.30;;;5.90;;
47483;SDS011;54076;50.322;18.650;2023-09-19T08:26:33;16.00;;;5.20;;
47483;SDS011;54076;50.322;18.650;2023-09-19T08:31:34;9.90;;;3.60;;
47483;SDS011;54076;50.322;18.650;2023-09-19T08:36:35;5.20;;;2.70;;
47483;SDS011;54076;50.322;18.650;2023-09-19T08:41:36;6.60;;;2.40;;
47483;SDS011;54076;50.322;18.650;2023-09-19T08:46:37;5.20;;;2.30;;
47483;SDS011;54076;50.322;18.650;2023-09-19T08:51:45;6.00;;;2.80;;
47483;SDS011;54076;50.322;18.650;2023-09-19T08:56:46;7.50;;;3.00;;
47483;SDS011;54076;50.322;18.650;2023-09-19T09:01:48;7.00;;;2.80;;
47483;SDS011;54076;50.322;18.650;2023-09-19T09:06:51;8.20;;;3.00;;
47483;SDS011;54076;50.322;18.650;2023-09-19T09:11:55;29.80;;;7.40;;
47483;SDS011;54076;50.322;18.650;2023-09-19T09:16:58;17.40;;;5.10;;
47483;SDS011;54076;50.322;18.650;2023-09-19T09:22:07;10.80;;;3.60;;
47483;SDS011;54076;50.322;18.650;2023-09-19T09:27:12;7.60;;;3.40;;
47483;SDS011;54076;50.322;18.650;2023-09-19T09:32:31;9.40;;;2.90;;
47483;SDS011;54076;50.322;18.650;2023-09-19T09:37:36;11.30;;;3.00;;
47483;SDS011;54076;50.322;18.650;2023-09-19T09:42:39;7.40;;;2.60;;
47483;SDS011;54076;50.322;18.650;2023-09-19T09:47:47;10.20;;;3.20;;
47483;SDS011;54076;50.322;18.650;2023-09-19T09:52:58;7.10;;;2.60;;
47483;SDS011;54076;50.322;18.650;2023-09-19T09:58:16;6.90;;;2.50;;
47483;SDS011;54076;50.322;18.650;2023-09-19T10:03:19;5.90;;;2.30;;
47483;SDS011;54076;50.322;18.650;2023-09-19T10:08:22;5.80;;;2.60;;
47483;SDS011;54076;50.322;18.650;2023-09-19T10:13:23;5.70;;;2.50;;
47483;SDS011;54076;50.322;18.650;2023-09-19T10:18:28;6.50;;;2.40;;
47483;SDS011;54076;50.322;18.650;2023-09-19T10:23:30;7.40;;;2.40;;
47483;SDS011;54076;50.322;18.650;2023-09-19T10:28:34;5.80;;;2.60;;
47483;SDS011;54076;50.322;18.650;2023-09-19T10:33:36;5.10;;;2.40;;
47483;SDS011;54076;50.322;18.650;2023-09-19T10:38:38;6.80;;;3.10;;
47483;SDS011;54076;50.322;18.650;2023-09-19T10:43:41;6.80;;;2.40;;
47483;SDS011;54076;50.322;18.650;2023-09-19T10:48:45;6.90;;;2.50;;
47483;SDS011;54076;50.322;18.650;2023-09-19T10:53:59;6.20;;;2.30;;
47483;SDS011;54076;50.322;18.650;2023-09-19T10:59:15;5.90;;;2.70;;
47483;SDS011;54076;50.322;18.650;2023-09-19T11:04:29;10.60;;;4.80;;
47483;SDS011;54076;50.322;18.650;2023-09-19T11:09:50;6.00;;;2.60;;
47483;SDS011;54076;50.322;18.650;2023-09-19T11:14:54;7.70;;;2.50;;
47483;SDS011;54076;50.322;18.650;2023-09-19T12:37:44;5.30;;;2.90;;
47483;SDS011;54076;50.322;18.650;2023-09-19T12:42:56;7.60;;;3.20;;
47483;SDS011;54076;50.322;18.650;2023-09-19T12:53:36;5.80;;;2.40;;
47483;SDS011;54076;50.322;18.650;2023-09-19T12:58:55;5.40;;;2.70;;
47483;SDS011;54076;50.322;18.650;2023-09-19T13:04:15;6.00;;;2.40;;
47483;SDS011;54076;50.322;18.650;2023-09-19T13:09:22;4.90;;;2.40;;
47483;SDS011;54076;50.322;18.650;2023-09-19T13:14:34;6.00;;;2.90;;
47483;SDS011;54076;50.322;18.650;2023-09-19T13:19:49;7.30;;;2.90;;
47483;SDS011;54076;50.322;18.650;2023-09-19T13:24:53;7.30;;;3.10;;
47483;SDS011;54076;50.322;18.650;2023-09-19T13:29:54;6.30;;;2.70;;
47483;SDS011;54076;50.322;18.650;2023-09-19T13:34:55;6.40;;;2.50;;
47483;SDS011;54076;50.322;18.650;2023-09-19T13:39:56;7.40;;;2.80;;
47483;SDS011;54076;50.322;18.650;2023-09-19T13:44:58;5.10;;;2.90;;
47483;SDS011;54076;50.322;18.650;2023-09-19T13:50:01;8.50;;;3.60;;
47483;SDS011;54076;50.322;18.650;2023-09-19T13:55:05;6.80;;;2.90;;
47483;SDS011;54076;50.322;18.650;2023-09-19T14:00:07;6.30;;;2.30;;
47483;SDS011;54076;50.322;18.650;2023-09-19T14:05:10;4.20;;;2.30;;
47483;SDS011;54076;50.322;18.650;2023-09-19T14:10:15;10.10;;;2.80;;
47483;SDS011;54076;50.322;18.650;2023-09-19T14:15:16;6.50;;;2.40;;
47483;SDS011;54076;50.322;18.650;2023-09-19T14:20:17;9.90;;;2.60;;
47483;SDS011;54076;50.322;18.650;2023-09-19T14:25:18;4.40;;;1.90;;
47483;SDS011;54076;50.322;18.650;2023-09-19T14:30:19;5.90;;;2.10;;
47483;SDS011;54076;50.322;18.650;2023-09-19T14:35:20;6.50;;;2.30;;
47483;SDS011;54076;50.322;18.650;2023-09-19T14:40:23;7.00;;;2.30;;
47483;SDS011;54076;50.322;18.650;2023-09-19T14:45:24;5.20;;;2.20;;
47483;SDS011;54076;50.322;18.650;2023-09-19T14:50:26;4.90;;;1.50;;
47483;SDS011;54076;50.322;18.650;2023-09-19T14:55:27;5.70;;;1.50;;
47483;SDS011;54076;50.322;18.650;2023-09-19T15:00:30;3.80;;;1.40;;
47483;SDS011;54076;50.322;18.650;2023-09-19T15:05:33;3.50;;;1.30;;
47483;SDS011;54076;50.322;18.650;2023-09-19T15:10:34;6.30;;;1.60;;
47483;SDS011;54076;50.322;18.650;2023-09-19T15:15:35;6.90;;;2.60;;
47483;SDS011;54076;50.322;18.650;2023-09-19T15:20:43;4.40;;;1.40;;
47483;SDS011;54076;50.322;18.650;2023-09-19T15:25:51;3.70;;;1.40;;
47483;SDS011;54076;50.322;18.650;2023-09-19T15:31:21;5.50;;;1.70;;
47483;SDS011;54076;50.322;18.650;2023-09-19T15:36:22;4.30;;;1.50;;
47483;SDS011;54076;50.322;18.650;2023-09-19T15:41:28;3.60;;;1.40;;
47483;SDS011;54076;50.322;18.650;2023-09-19T15:46:33;4.20;;;1.80;;
47483;SDS011;54076;50.322;18.650;2023-09-19T15:51:36;4.90;;;1.70;;
47483;SDS011;54076;50.322;18.650;2023-09-19T15:56:37;4.00;;;1.90;;
47483;SDS011;54076;50.322;18.650;2023-09-19T16:01:39;4.00;;;1.50;;
47483;SDS011;54076;50.322;18.650;2023-09-19T16:06:43;6.20;;;1.70;;
47483;SDS011;54076;50.322;18.650;2023-09-19T16:11:44;3.70;;;1.50;;
47483;SDS011;54076;50.322;18.650;2023-09-19T16:16:45;9.90;;;5.00;;
47483;SDS011;54076;50.322;18.650;2023-09-19T16:21:46;3.70;;;1.60;;
47483;SDS011;54076;50.322;18.650;2023-09-19T16:26:47;4.60;;;1.60;;
47483;SDS011;54076;50.322;18.650;2023-09-19T16:31:49;3.70;;;1.40;;
47483;SDS011;54076;50.322;18.650;2023-09-19T16:36:50;4.20;;;1.50;;
47483;SDS011;54076;50.322;18.650;2023-09-19T16:41:52;4.00;;;1.70;;
47483;SDS011;54076;50.322;18.650;2023-09-19T16:46:52;5.30;;;1.90;;
47483;SDS011;54076;50.322;18.650;2023-09-19T16:51:53;6.40;;;1.60;;
47483;SDS011;54076;50.322;18.650;2023-09-19T16:56:54;5.30;;;2.20;;
47483;SDS011;54076;50.322;18.650;2023-09-19T17:01:55;5.10;;;2.10;;
47483;SDS011;54076;50.322;18.650;2023-09-19T17:06:57;9.00;;;2.60;;
47483;SDS011;54076;50.322;18.650;2023-09-19T17:11:58;5.40;;;2.50;;
47483;SDS011;54076;50.322;18.650;2023-09-19T17:16:59;6.40;;;2.20;;
47483;SDS011;54076;50.322;18.650;2023-09-19T17:22:00;4.40;;;2.00;;
47483;SDS011;54076;50.322;18.650;2023-09-19T17:27:01;6.00;;;2.30;;
47483;SDS011;54076;50.322;18.650;2023-09-19T17:32:03;5.50;;;2.60;;
47483;SDS011;54076;50.322;18.650;2023-09-19T17:37:05;6.30;;;3.20;;
47483;SDS011;54076;50.322;18.650;2023-09-19T17:42:06;6.60;;;2.90;;
47483;SDS011;54076;50.322;18.650;2023-09-19T17:47:08;12.70;;;6.70;;
47483;SDS011;54076;50.322;18.650;2023-09-19T17:52:10;7.70;;;3.30;;
47483;SDS011;54076;50.322;18.650;2023-09-19T17:57:12;5.70;;;2.80;;
47483;SDS011;54076;50.322;18.650;2023-09-19T18:02:12;6.10;;;2.90;;
47483;SDS011;54076;50.322;18.650;2023-09-19T18:07:13;6.20;;;2.70;;
47483;SDS011;54076;50.322;18.650;2023-09-19T18:12:14;5.60;;;2.90;;
47483;SDS011;54076;50.322;18.650;2023-09-19T18:17:15;7.80;;;2.90;;
47483;SDS011;54076;50.322;18.650;2023-09-19T18:22:16;8.10;;;3.20;;
47483;SDS011;54076;50.322;18.650;2023-09-19T18:27:17;5.30;;;2.80;;
47483;SDS011;54076;50.322;18.650;2023-09-19T18:32:18;6.60;;;3.20;;
47483;SDS011;54076;50.322;18.650;2023-09-19T18:37:19;8.00;;;3.60;;
47483;SDS011;54076;50.322;18.650;2023-09-19T18:42:20;6.90;;;3.10;;
47483;SDS011;54076;50.322;18.650;2023-09-19T18:47:21;9.00;;;3.90;;
47483;SDS011;54076;50.322;18.650;2023-09-19T18:52:23;7.30;;;3.30;;
47483;SDS011;54076;50.322;18.650;2023-09-19T18:57:24;7.60;;;3.70;;
47483;SDS011;54076;50.322;18.650;2023-09-19T19:02:25;6.00;;;3.00;;
47483;SDS011;54076;50.322;18.650;2023-09-19T19:07:26;9.80;;;3.30;;
47483;SDS011;54076;50.322;18.650;2023-09-19T19:12:27;5.80;;;3.20;;
47483;SDS011;54076;50.322;18.650;2023-09-19T19:17:34;8.10;;;3.50;;
47483;SDS011;54076;50.322;18.650;2023-09-19T19:22:35;6.40;;;3.10;;
47483;SDS011;54076;50.322;18.650;2023-09-19T19:27:37;7.30;;;4.10;;
47483;SDS011;54076;50.322;18.650;2023-09-19T19:32:38;7.20;;;4.10;;
47483;SDS011;54076;50.322;18.650;2023-09-19T19:37:39;7.60;;;4.90;;
47483;SDS011;54076;50.322;18.650;2023-09-19T19:42:40;9.70;;;5.50;;
47483;SDS011;54076;50.322;18.650;2023-09-19T19:47:41;7.80;;;4.60;;
47483;SDS011;54076;50.322;18.650;2023-09-19T19:52:42;7.90;;;4.50;;
47483;SDS011;54076;50.322;18.650;2023-09-19T19:57:43;9.30;;;5.00;;
47483;SDS011;54076;50.322;18.650;2023-09-19T20:02:44;10.10;;;4.90;;
47483;SDS011;54076;50.322;18.650;2023-09-19T20:07:46;9.40;;;4.80;;
47483;SDS011;54076;50.322;18.650;2023-09-19T20:12:49;10.60;;;5.90;;
47483;SDS011;54076;50.322;18.650;2023-09-19T20:17:50;10.10;;;5.40;;
47483;SDS011;54076;50.322;18.650;2023-09-19T20:22:52;11.10;;;5.80;;
47483;SDS011;54076;50.322;18.650;2023-09-19T20:27:52;10.70;;;5.60;;
47483;SDS011;54076;50.322;18.650;2023-09-19T20:32:53;10.90;;;5.80;;
47483;SDS011;54076;50.322;18.650;2023-09-19T20:37:55;14.00;;;6.80;;
47483;SDS011;54076;50.322;18.650;2023-09-19T20:43:01;13.10;;;6.20;;
47483;SDS011;54076;50.322;18.650;2023-09-19T20:48:02;11.10;;;6.20;;
47483;SDS011;54076;50.322;18.650;2023-09-19T20:53:04;14.20;;;6.50;;
47483;SDS011;54076;50.322;18.650;2023-09-19T20:58:05;13.90;;;6.80;;
47483;SDS011;54076;50.322;18.650;2023-09-19T21:03:06;13.60;;;6.50;;
47483;SDS011;54076;50.322;18.650;2023-09-19T21:08:07;12.40;;;6.80;;
47483;SDS011;54076;50.322;18.650;2023-09-19T21:13:08;13.00;;;6.30;;
47483;SDS011;54076;50.322;18.650;2023-09-19T21:18:10;12.00;;;6.30;;
47483;SDS011;54076;50.322;18.650;2023-09-19T21:23:11;12.50;;;6.20;;
47483;SDS011;54076;50.322;18.650;2023-09-19T21:28:14;12.30;;;6.10;;
47483;SDS011;54076;50.322;18.650;2023-09-19T21:33:15;11.30;;;5.70;;
47483;SDS011;54076;50.322;18.650;2023-09-19T21:38:16;11.00;;;5.90;;
47483;SDS011;54076;50.322;18.650;2023-09-19T21:43:17;10.20;;;5.60;;
47483;SDS011;54076;50.322;18.650;2023-09-19T21:48:18;11.30;;;5.80;;
47483;SDS011;54076;50.322;18.650;2023-09-19T21:53:19;11.50;;;5.70;;
47483;SDS011;54076;50.322;18.650;2023-09-19T21:58:20;11.40;;;6.00;;
47483;SDS011;54076;50.322;18.650;2023-09-19T22:03:22;11.50;;;6.10;;
47483;SDS011;54076;50.322;18.650;2023-09-19T22:08:23;13.20;;;6.90;;
47483;SDS011;54076;50.322;18.650;2023-09-19T22:13:24;10.30;;;5.80;;
47483;SDS011;54076;50.322;18.650;2023-09-19T22:18:26;11.30;;;5.70;;
47483;SDS011;54076;50.322;18.650;2023-09-19T22:23:28;9.70;;;5.40;;
47483;SDS011;54076;50.322;18.650;2023-09-19T22:28:35;9.50;;;5.40;;
47483;SDS011;54076;50.322;18.650;2023-09-19T22:33:37;10.70;;;5.30;;
47483;SDS011;54076;50.322;18.650;2023-09-19T22:38:38;13.80;;;5.10;;
47483;SDS011;54076;50.322;18.650;2023-09-19T22:43:39;12.00;;;5.20;;
47483;SDS011;54076;50.322;18.650;2023-09-19T22:48:46;10.40;;;4.80;;
47483;SDS011;54076;50.322;18.650;2023-09-19T22:53:47;9.30;;;4.90;;
47483;SDS011;54076;50.322;18.650;2023-09-19T22:58:51;10.20;;;4.60;;
47483;SDS011;54076;50.322;18.650;2023-09-19T23:03:54;8.40;;;5.10;;
47483;SDS011;54076;50.322;18.650;2023-09-19T23:09:10;8.00;;;4.50;;
47483;SDS011;54076;50.322;18.650;2023-09-19T23:14:24;8.60;;;4.40;;
47483;SDS011;54076;50.322;18.650;2023-09-19T23:19:33;9.00;;;5.10;;
47483;SDS011;54076;50.322;18.650;2023-09-19T23:24:34;11.40;;;5.20;;
47483;SDS011;54076;50.322;18.650;2023-09-19T23:29:38;10.70;;;5.20;;
47483;SDS011;54076;50.322;18.650;2023-09-19T23:34:39;10.80;;;3.90;;
47483;SDS011;54076;50.322;18.650;2023-09-19T23:39:41;10.90;;;5.30;;
47483;SDS011;54076;50.322;18.650;2023-09-19T23:44:42;10.10;;;4.30;;
47483;SDS011;54076;50.322;18.650;2023-09-19T23:49:47;9.80;;;5.20;;
47483;SDS011;54076;50.322;18.650;2023-09-19T23:54:49;9.80;;;4.90;;
47483;SDS011;54076;50.322;18.650;2023-09-19T23:59:50;8.70;;;4.40;;
